Crescent Mills, CA (95934)

5:15 AM PDT on October 31, 2014 (GMT -0700)
Mt. Hough Estates | Change Station
CLOSE
Current Station
Personal Weather Station
Location: Greenville, CA
Elevation: 3550 ft
Nearby Weather Stations
Active Advisory: Winter Weather Advisory

Elev 3550 ft 40.12 °N, 120.90 °W | Updated 27 seconds ago

Mostly Cloudy
Mostly Cloudy
52.3 °F
Feels Like 52.3 °F
N
3.0
Wind Variable Wind from West
Gusts 7.0 mph

Today
High -- | Low -- °F
--% Chance of Precip.
Yesterday
High -- | Low -- °F
Precip. -- in
7:31 AM 6:02 PM
First Quarter, 54% visible
Pressure 29.99 in
Visibility 7.0 miles
Clouds Scattered Clouds 300 ft
Overcast 10000 ft
Dew Point 37 °F
Humidity 56%
Rainfall 0.00 in
Snow Depth Not available.
UV 0 out of 12
Pollen 2.50 out of 12
Air Quality Not available.
Flu Activity Not available.
SPECI KBLU 311202Z AUTO 13004KT 7SM SCT003 OVC100 06/04 A2999 RMK AO2 T00610039

More Conditions Fewer Conditions

Pressure 29.99 in
Visibility 7.0 miles
Clouds Scattered Clouds 300 ft
Overcast 10000 ft
Dew Point 37 °F
Humidity 56%
Rainfall 0.00 in
Snow Depth Not available.
UV 0 out of 12
Pollen 2.50 out of 12
Air Quality Not available.
Flu Activity Not available.
SPECI KBLU 311202Z AUTO 13004KT 7SM SCT003 OVC100 06/04 A2999 RMK AO2 T00610039

More Conditions Fewer Conditions

10-Day Weather Forecast

Almanac

Astronomy

Oct. 31, 2014 Rise Set
Actual Time
Civil Twilight
Nautical Twilight
Astronomical Twilight
Moon
Length of Visible Light
Length of Day
Tomorrow will be .
, % of the Moon is Illuminated

Today's Extremes

State Highs State Lows

Community

WunderPhotos

Upload Photos

1,766,589 photos uploaded!

WunderBlogs® & News

Nearby

Air Quality

  Air Quality AQ Index Pollutant
Not available.

Snow Depth

Station Depth Elevation

Earthquake Activity

City Distance Mag. Time & Date
Minimum magnitude displayed is 2.5.

Coastal Water Temperatures

Place Temperature

Nearby Weather Stations